Terminal Aerodrome Forecast
Issued by NWS

Home | Current Version | Previous Version | Text Only | Print | Product List | Glossary On
Versions: 1 2 3 4 5 6 7 8 9 10 11 12 13 14 15 16 17 18 19 20 21 22 23 24 25 26 27 28 29
000
FTUS46 KEKA 070534
TAFCEC
TAF
KCEC 070534Z 0706/0806 33018G28KT P6SM FEW012
     FM070800 34013G20KT P6SM FEW012
     FM071100 34014KT P6SM FEW009
     FM071600 34016G24KT P6SM FEW250
     FM072000 33025G35KT P6SM SCT250=

USA.gov is the U.S. government's official web portal to all federal, state and local government web resources and services.